Time;durP1;ratioP1;P1;durP2;ratioP2;P2;SDS_P1;SDS_P2;PMS_P1;PMS_P2;Temp;Humidity;BMP_temperature;BMP_pressure;BME280_temperature;BME280_humidity;BME280_pressure;Samples;Min_cycle;Max_cycle;Signal;HPM_P1;HPM_P2
2020/12/17 16:53:35;3747558.00;12.49;8047.65;1581691.00;5.27;2797.80;;;;;24.90;44.50;;;;;;2270369;60;6491;-72
2020/12/17 16:56:02;116374592.00;387.92;63840020.00;0.00;0.00;0.62;;;;;28.40;37.20;;;;;;2258541;61;7709;-66
2020/12/17 16:58:28;0.00;0.00;0.62;0.00;0.00;0.62;;;;;28.60;36.00;;;;;;2255552;61;7653;-67
2020/12/17 17:00:55;0.00;0.00;0.62;0.00;0.00;0.62;;;;;28.80;35.60;;;;;;2262268;61;6356;-66
2020/12/17 17:03:21;0.00;0.00;0.62;0.00;0.00;0.62;;;;;28.90;35.40;;;;;;2261919;61;7857;-65
2020/12/17 17:05:47;0.00;0.00;0.62;0.00;0.00;0.62;;;;;28.90;35.10;;;;;;2258360;61;8030;-66
2020/12/17 17:08:17;0.00;0.00;0.62;0.00;0.00;0.62;;;;;28.80;35.00;;;;;;2260426;61;8123;-69
2020/12/17 17:10:48;0.00;0.00;0.62;0.00;0.00;0.62;;;;;28.70;35.20;;;;;;2259017;61;8068;-68
2020/12/17 17:13:14;0.00;0.00;0.62;0.00;0.00;0.62;;;;;28.70;35.80;;;;;;2253819;61;8321;-69
2020/12/17 17:15:40;0.00;0.00;0.62;0.00;0.00;0.62;;;;;28.70;35.00;;;;;;2259311;61;7814;-71
2020/12/17 17:18:10;0.00;0.00;0.62;0.00;0.00;0.62;;;;;28.50;35.00;;;;;;2255080;61;7992;-70
2020/12/17 17:20:41;6863.00;0.02;12.51;0.00;0.00;0.62;;;;;28.50;35.00;;;;;;2258410;61;5967;-66
2020/12/17 17:23:07;19204.00;0.06;33.89;0.00;0.00;0.62;;;;;28.40;35.00;;;;;;2259286;61;6067;-68
2020/12/17 17:25:33;0.00;0.00;0.62;0.00;0.00;0.62;;;;;28.40;34.80;;;;;;2261075;61;5928;-69
2020/12/17 17:28:00;0.00;0.00;0.62;0.00;0.00;0.62;;;;;28.30;35.00;;;;;;2259596;61;8059;-71
2020/12/17 17:30:29;0.00;0.00;0.62;0.00;0.00;0.62;;;;;28.20;35.10;;;;;;2257257;61;7843;-69
2020/12/17 17:32:56;0.00;0.00;0.62;0.00;0.00;0.62;;;;;28.30;34.90;;;;;;2256158;61;8141;-68
2020/12/17 17:35:22;0.00;0.00;0.62;0.00;0.00;0.62;;;;;28.20;34.90;;;;;;2255396;61;7814;-69
2020/12/17 17:37:48;0.00;0.00;0.62;0.00;0.00;0.62;;;;;28.20;34.90;;;;;;2259272;61;8013;-67
2020/12/17 17:40:15;0.00;0.00;0.62;0.00;0.00;0.62;;;;;28.20;34.80;;;;;;2256462;61;6224;-67
2020/12/17 17:42:41;0.00;0.00;0.62;0.00;0.00;0.62;;;;;28.20;34.70;;;;;;2258881;61;7857;-66
2020/12/17 17:45:11;120508.00;0.40;208.96;0.00;0.00;0.62;;;;;28.20;34.70;;;;;;2259611;61;8247;-68
2020/12/17 17:47:37;0.00;0.00;0.62;0.00;0.00;0.62;;;;;28.20;34.80;;;;;;2260129;61;8188;-67
2020/12/17 17:50:04;0.00;0.00;0.62;0.00;0.00;0.62;;;;;28.20;34.70;;;;;;2257484;61;7845;-67
2020/12/17 17:52:30;0.00;0.00;0.62;0.00;0.00;0.62;;;;;28.10;34.70;;;;;;2256742;61;6182;-72
2020/12/17 17:54:57;0.00;0.00;0.62;0.00;0.00;0.62;;;;;28.20;34.80;;;;;;2261891;60;7999;-66
2020/12/17 17:57:23;395744.00;1.32;682.49;285758.00;0.95;493.44;;;;;28.00;35.00;;;;;;2260599;61;7628;-67
2020/12/17 17:59:49;0.00;0.00;0.62;0.00;0.00;0.62;;;;;28.10;35.00;;;;;;2255847;61;6186;-71
2020/12/17 18:02:20;0.00;0.00;0.62;0.00;0.00;0.62;;;;;28.00;35.20;;;;;;2257394;61;7625;-68
2020/12/17 18:04:46;0.00;0.00;0.62;0.00;0.00;0.62;;;;;27.80;35.20;;;;;;2256934;61;6106;-71
2020/12/17 18:07:12;0.00;0.00;0.62;0.00;0.00;0.62;;;;;27.80;35.90;;;;;;2254267;61;7596;-68
2020/12/17 18:09:39;0.00;0.00;0.62;0.00;0.00;0.62;;;;;27.70;35.40;;;;;;2257618;61;7640;-78
2020/12/17 18:12:05;0.00;0.00;0.62;0.00;0.00;0.62;;;;;27.80;35.70;;;;;;2253319;61;7714;-70
2020/12/17 18:14:31;0.00;0.00;0.62;0.00;0.00;0.62;;;;;27.80;35.60;;;;;;2255902;61;7635;-69
2020/12/17 18:17:01;0.00;0.00;0.62;0.00;0.00;0.62;;;;;27.90;36.30;;;;;;2255186;61;7187;-70
2020/12/17 18:19:27;0.00;0.00;0.62;0.00;0.00;0.62;;;;;28.00;35.40;;;;;;2256771;61;8340;-70
2020/12/17 18:21:53;0.00;0.00;0.62;0.00;0.00;0.62;;;;;28.10;36.10;;;;;;2259048;61;8518;-69
2020/12/17 18:24:20;0.00;0.00;0.62;0.00;0.00;0.62;;;;;28.20;35.40;;;;;;2255881;61;6071;-67
2020/12/17 18:26:46;0.00;0.00;0.62;0.00;0.00;0.62;;;;;28.40;35.40;;;;;;2255700;61;7596;-69
2020/12/17 18:29:13;0.00;0.00;0.62;0.00;0.00;0.62;;;;;28.60;35.20;;;;;;2252634;61;7762;-68
2020/12/17 18:31:44;0.00;0.00;0.62;0.00;0.00;0.62;;;;;28.80;35.10;;;;;;2253943;61;6014;-66
2020/12/17 18:34:12;0.00;0.00;0.62;0.00;0.00;0.62;;;;;29.10;34.50;;;;;;2256605;61;8024;-68
2020/12/17 18:36:43;0.00;0.00;0.62;0.00;0.00;0.62;;;;;29.20;34.40;;;;;;2259262;61;8502;-70
2020/12/17 18:39:09;76613.00;0.26;133.19;0.00;0.00;0.62;;;;;29.30;34.30;;;;;;2252669;61;4303;-68
2020/12/17 18:41:35;0.00;0.00;0.62;0.00;0.00;0.62;;;;;29.50;34.00;;;;;;2252822;61;9113;-72
2020/12/17 18:44:05;0.00;0.00;0.62;0.00;0.00;0.62;;;;;29.40;34.10;;;;;;2257360;61;7811;-65
2020/12/17 18:46:32;0.00;0.00;0.62;0.00;0.00;0.62;;;;;29.60;34.00;;;;;;2255876;61;6231;-66
2020/12/17 18:48:58;0.00;0.00;0.62;0.00;0.00;0.62;;;;;29.60;33.90;;;;;;2252285;61;8746;-67
2020/12/17 18:51:25;0.00;0.00;0.62;0.00;0.00;0.62;;;;;29.70;33.90;;;;;;2252436;61;8097;-69
2020/12/17 18:53:52;0.00;0.00;0.62;0.00;0.00;0.62;;;;;29.90;33.70;;;;;;2253528;61;7635;-65
2020/12/17 18:56:20;0.00;0.00;0.62;0.00;0.00;0.62;;;;;29.60;33.70;;;;;;2248982;61;6113;-68
2020/12/17 18:58:47;0.00;0.00;0.62;0.00;0.00;0.62;;;;;29.80;33.90;;;;;;2250960;61;5842;-65
2020/12/17 19:01:14;0.00;0.00;0.62;0.00;0.00;0.62;;;;;29.80;33.70;;;;;;2256149;61;6033;-66
2020/12/17 19:03:41;0.00;0.00;0.62;0.00;0.00;0.62;;;;;29.90;33.60;;;;;;2251954;61;6142;-68
2020/12/17 19:06:11;0.00;0.00;0.62;0.00;0.00;0.62;;;;;30.00;33.60;;;;;;2255962;61;7808;-68
2020/12/17 19:08:39;0.00;0.00;0.62;0.00;0.00;0.62;;;;;29.90;33.50;;;;;;2257324;61;4308;-70
2020/12/17 19:11:05;0.00;0.00;0.62;0.00;0.00;0.62;;;;;30.00;33.50;;;;;;2255426;61;7609;-67
2020/12/17 19:13:32;0.00;0.00;0.62;0.00;0.00;0.62;;;;;29.80;33.60;;;;;;2249839;61;7846;-71
2020/12/17 19:16:04;0.00;0.00;0.62;0.00;0.00;0.62;;;;;29.80;33.80;;;;;;2252146;61;7889;-70
2020/12/17 19:18:31;0.00;0.00;0.62;0.00;0.00;0.62;;;;;29.80;33.60;;;;;;2248299;61;6089;-72
2020/12/17 19:21:01;0.00;0.00;0.62;0.00;0.00;0.62;;;;;29.80;33.90;;;;;;2255565;61;4216;-68
2020/12/17 19:23:31;0.00;0.00;0.62;0.00;0.00;0.62;;;;;29.80;33.90;;;;;;2255830;61;7779;-71
2020/12/17 19:26:01;0.00;0.00;0.62;0.00;0.00;0.62;;;;;29.60;34.00;;;;;;2255948;61;6124;-70
2020/12/17 19:28:27;0.00;0.00;0.62;0.00;0.00;0.62;;;;;29.70;33.90;;;;;;2255539;61;6231;-66
2020/12/17 19:30:53;0.00;0.00;0.62;0.00;0.00;0.62;;;;;29.90;33.80;;;;;;2252195;61;6050;-67
2020/12/17 19:33:23;0.00;0.00;0.62;0.00;0.00;0.62;;;;;29.90;33.80;;;;;;2254703;61;7954;-67
2020/12/17 19:35:50;0.00;0.00;0.62;0.00;0.00;0.62;;;;;29.80;34.00;;;;;;2253989;61;4362;-67
2020/12/17 19:38:16;0.00;0.00;0.62;0.00;0.00;0.62;;;;;29.70;33.90;;;;;;2251075;61;7923;-68
2020/12/17 19:40:43;344537.00;1.15;594.47;120626.00;0.40;209.16;;;;;29.60;34.40;;;;;;2253742;61;2464;-69
2020/12/17 19:43:15;0.00;0.00;0.62;0.00;0.00;0.62;;;;;29.60;34.40;;;;;;2257018;61;6194;-66
2020/12/17 19:45:42;0.00;0.00;0.62;0.00;0.00;0.62;;;;;29.60;34.30;;;;;;2251812;61;6195;-66
2020/12/17 19:48:10;0.00;0.00;0.62;0.00;0.00;0.62;;;;;29.50;34.30;;;;;;2253488;61;4308;-69
2020/12/17 19:50:42;0.00;0.00;0.62;0.00;0.00;0.62;;;;;29.60;34.40;;;;;;2254151;61;7411;-65
2020/12/17 19:53:08;41340.00;0.14;72.21;0.00;0.00;0.62;;;;;29.50;34.50;;;;;;2250588;61;6071;-68
2020/12/17 19:55:34;94050.00;0.31;163.30;0.00;0.00;0.62;;;;;29.60;34.40;;;;;;2253526;61;8097;-68
2020/12/17 19:58:04;35238.00;0.12;61.65;0.00;0.00;0.62;;;;;29.80;34.10;;;;;;2254033;61;6072;-66
2020/12/17 20:00:33;40608.00;0.14;70.94;0.00;0.00;0.62;;;;;29.80;34.10;;;;;;2251765;61;6025;-70
2020/12/17 20:03:00;0.00;0.00;0.62;0.00;0.00;0.62;;;;;29.70;34.20;;;;;;2254216;61;7620;-67
2020/12/17 20:05:27;0.00;0.00;0.62;0.00;0.00;0.62;;;;;29.80;34.10;;;;;;2250932;61;7584;-65
2020/12/17 20:08:00;0.00;0.00;0.62;0.00;0.00;0.62;;;;;29.90;34.20;;;;;;2256257;61;6216;-69
2020/12/17 20:10:30;0.00;0.00;0.62;0.00;0.00;0.62;;;;;29.90;33.90;;;;;;2255492;61;7988;-67
2020/12/17 20:12:58;0.00;0.00;0.62;0.00;0.00;0.62;;;;;29.80;33.90;;;;;;2255235;61;7997;-67
2020/12/17 20:15:25;0.00;0.00;0.62;0.00;0.00;0.62;;;;;29.80;34.20;;;;;;2254635;61;7238;-70
2020/12/17 20:17:52;0.00;0.00;0.62;0.00;0.00;0.62;;;;;29.70;34.20;;;;;;2255945;61;5865;-69
2020/12/17 20:20:18;0.00;0.00;0.62;0.00;0.00;0.62;;;;;29.60;34.40;;;;;;2253896;61;7549;-69
2020/12/17 20:22:45;122437.00;0.41;212.29;55262.00;0.18;96.29;;;;;29.60;34.50;;;;;;2252360;61;6145;-71
2020/12/17 20:25:15;192349.00;0.64;332.75;52686.00;0.18;91.83;;;;;29.50;34.40;;;;;;2255926;61;5973;-68
2020/12/17 20:27:42;0.00;0.00;0.62;0.00;0.00;0.62;;;;;29.40;34.60;;;;;;2251860;61;7899;-69
2020/12/17 20:30:08;0.00;0.00;0.62;0.00;0.00;0.62;;;;;29.40;34.60;;;;;;2255297;61;5856;-68
2020/12/17 20:32:36;0.00;0.00;0.62;0.00;0.00;0.62;;;;;29.40;34.70;;;;;;2255237;61;7666;-66
2020/12/17 20:35:03;0.00;0.00;0.62;0.00;0.00;0.62;;;;;29.40;34.70;;;;;;2254425;61;7616;-67
2020/12/17 20:37:29;0.00;0.00;0.62;0.00;0.00;0.62;;;;;29.40;34.60;;;;;;2253433;61;5675;-68
2020/12/17 20:39:56;0.00;0.00;0.62;0.00;0.00;0.62;;;;;29.50;34.60;;;;;;2257190;61;8740;-69
2020/12/17 20:42:24;0.00;0.00;0.62;0.00;0.00;0.62;;;;;29.60;34.40;;;;;;2254994;61;7299;-66
2020/12/17 20:44:50;0.00;0.00;0.62;0.00;0.00;0.62;;;;;29.70;34.40;;;;;;2253298;61;8786;-68
2020/12/17 20:47:16;0.00;0.00;0.62;0.00;0.00;0.62;;;;;29.70;34.20;;;;;;2257439;61;7610;-70
2020/12/17 20:49:46;0.00;0.00;0.62;0.00;0.00;0.62;;;;;29.80;34.10;;;;;;2250911;61;7629;-71
2020/12/17 20:52:13;0.00;0.00;0.62;0.00;0.00;0.62;;;;;29.90;33.90;;;;;;2254626;61;7153;-66
2020/12/17 20:54:39;0.00;0.00;0.62;0.00;0.00;0.62;;;;;29.80;33.90;;;;;;2255773;61;8165;-67
2020/12/17 20:57:05;0.00;0.00;0.62;0.00;0.00;0.62;;;;;29.70;34.10;;;;;;2252001;61;8040;-67
2020/12/17 20:59:35;0.00;0.00;0.62;0.00;0.00;0.62;;;;;29.70;34.10;;;;;;2256498;61;7819;-75
2020/12/17 21:02:10;72236.00;0.24;125.62;0.00;0.00;0.62;;;;;29.80;34.20;;;;;;2258914;61;6089;-68
2020/12/17 21:04:36;0.00;0.00;0.62;0.00;0.00;0.62;;;;;29.70;34.20;;;;;;2257004;61;7561;-66
2020/12/17 21:07:06;0.00;0.00;0.62;0.00;0.00;0.62;;;;;29.80;34.00;;;;;;2255414;61;6039;-71
2020/12/17 21:09:36;0.00;0.00;0.62;0.00;0.00;0.62;;;;;29.70;34.10;;;;;;2255244;61;4327;-71
2020/12/17 21:12:03;211057.00;0.70;364.95;0.00;0.00;0.62;;;;;29.60;34.30;;;;;;2253694;61;4511;-70
2020/12/17 21:14:29;0.00;0.00;0.62;0.00;0.00;0.62;;;;;29.60;34.30;;;;;;2254150;61;6238;-70
2020/12/17 21:16:55;0.00;0.00;0.62;0.00;0.00;0.62;;;;;29.50;34.50;;;;;;2254020;61;4140;-70
2020/12/17 21:19:22;0.00;0.00;0.62;0.00;0.00;0.62;;;;;29.40;34.60;;;;;;2258908;61;4224;-75
2020/12/17 21:21:52;123186.00;0.41;213.58;48403.00;0.16;84.42;;;;;29.10;34.80;;;;;;2250507;61;5912;-76
2020/12/17 21:24:19;0.00;0.00;0.62;0.00;0.00;0.62;;;;;29.20;34.70;;;;;;2256114;61;4012;-73
2020/12/17 21:26:46;0.00;0.00;0.62;0.00;0.00;0.62;;;;;29.00;34.60;;;;;;2258883;61;4216;-74
2020/12/17 21:29:12;0.00;0.00;0.62;0.00;0.00;0.62;;;;;28.90;34.20;;;;;;2250763;61;5886;-72
2020/12/17 21:31:50;0.00;0.00;0.62;0.00;0.00;0.62;;;;;28.80;34.30;;;;;;2256076;61;2454;-68
2020/12/17 21:34:18;0.00;0.00;0.62;0.00;0.00;0.62;;;;;28.70;34.40;;;;;;2254662;61;6025;-72
2020/12/17 21:36:45;0.00;0.00;0.62;0.00;0.00;0.62;;;;;28.60;34.40;;;;;;2258614;61;4230;-76
2020/12/17 21:39:11;431729.00;1.44;744.36;294387.00;0.98;508.27;;;;;28.50;34.40;;;;;;2253980;61;4401;-68
2020/12/17 21:41:37;0.00;0.00;0.62;0.00;0.00;0.62;;;;;28.40;34.60;;;;;;2256197;61;5922;-68
2020/12/17 21:44:08;0.00;0.00;0.62;0.00;0.00;0.62;;;;;28.30;34.80;;;;;;2257340;61;5973;-74
2020/12/17 21:46:37;240394.00;0.80;415.43;84996.00;0.28;147.67;;;;;28.10;34.90;;;;;;2257321;61;8035;-68
2020/12/17 21:49:16;159862.00;0.53;276.80;0.00;0.00;0.62;;;;;28.00;35.10;;;;;;2256281;61;7669;-68
2020/12/17 21:51:43;0.00;0.00;0.62;0.00;0.00;0.62;;;;;28.00;35.30;;;;;;2252429;61;7871;-69
2020/12/17 21:54:09;0.00;0.00;0.62;0.00;0.00;0.62;;;;;27.90;35.20;;;;;;2253004;61;6070;-73
2020/12/17 21:56:36;286934.00;0.96;495.46;101622.00;0.34;176.37;;;;;27.90;35.30;;;;;;2258220;61;6023;-69
2020/12/17 21:59:06;0.00;0.00;0.62;0.00;0.00;0.62;;;;;27.80;35.40;;;;;;2258407;61;6092;-68
2020/12/17 22:01:36;0.00;0.00;0.62;0.00;0.00;0.62;;;;;27.80;35.30;;;;;;2252936;61;7621;-70
2020/12/17 22:04:02;0.00;0.00;0.62;0.00;0.00;0.62;;;;;27.70;35.50;;;;;;2249332;61;6178;-70
2020/12/17 22:06:28;0.00;0.00;0.62;0.00;0.00;0.62;;;;;27.60;35.50;;;;;;2252755;61;4363;-72
2020/12/17 22:08:55;0.00;0.00;0.62;0.00;0.00;0.62;;;;;27.50;35.70;;;;;;2256656;61;8031;-67
2020/12/17 22:11:25;0.00;0.00;0.62;0.00;0.00;0.62;;;;;27.40;35.70;;;;;;2258316;61;4387;-69
2020/12/17 22:13:51;0.00;0.00;0.62;0.00;0.00;0.62;;;;;27.40;35.80;;;;;;2255560;61;5967;-75
2020/12/17 22:16:21;76234.00;0.25;132.53;0.00;0.00;0.62;;;;;27.40;35.80;;;;;;2258017;61;7584;-69
2020/12/17 22:18:48;0.00;0.00;0.62;0.00;0.00;0.62;;;;;27.30;35.90;;;;;;2255117;61;6129;-69
2020/12/17 22:21:14;0.00;0.00;0.62;0.00;0.00;0.62;;;;;27.20;36.00;;;;;;2253481;61;5990;-73
2020/12/17 22:23:44;0.00;0.00;0.62;0.00;0.00;0.62;;;;;27.20;36.10;;;;;;2250981;61;8370;-70
2020/12/17 22:26:27;25307.00;0.08;44.46;0.00;0.00;0.62;;;;;27.10;36.20;;;;;;2253734;61;7828;-70
2020/12/17 22:28:54;0.00;0.00;0.62;0.00;0.00;0.62;;;;;27.10;36.20;;;;;;2250906;61;7573;-73
2020/12/17 22:31:29;0.00;0.00;0.62;0.00;0.00;0.62;;;;;27.10;36.40;;;;;;2256033;61;8215;-68
2020/12/17 22:33:56;0.00;0.00;0.62;0.00;0.00;0.62;;;;;27.00;36.40;;;;;;2251586;61;5955;-75
2020/12/17 22:36:24;0.00;0.00;0.62;0.00;0.00;0.62;;;;;27.00;36.50;;;;;;2251917;61;6314;-70
2020/12/17 22:38:50;0.00;0.00;0.62;0.00;0.00;0.62;;;;;26.90;36.40;;;;;;2256650;61;4258;-70
2020/12/17 22:41:21;0.00;0.00;0.62;0.00;0.00;0.62;;;;;26.90;36.60;;;;;;2253225;61;7959;-74
2020/12/17 22:43:51;0.00;0.00;0.62;0.00;0.00;0.62;;;;;26.80;36.50;;;;;;2252326;61;3861;-71
2020/12/17 22:46:26;0.00;0.00;0.62;0.00;0.00;0.62;;;;;26.80;36.50;;;;;;2251715;61;6351;-69
2020/12/17 22:48:53;0.00;0.00;0.62;0.00;0.00;0.62;;;;;26.70;36.70;;;;;;2249774;61;6057;-68
2020/12/17 22:51:25;0.00;0.00;0.62;0.00;0.00;0.62;;;;;26.70;36.70;;;;;;2244052;61;8133;-67
2020/12/17 22:53:53;0.00;0.00;0.62;0.00;0.00;0.62;;;;;26.70;36.70;;;;;;2248894;61;7909;-74
2020/12/17 22:56:30;53342.00;0.18;92.97;0.00;0.00;0.62;;;;;26.80;36.60;;;;;;2255970;61;7722;-72
2020/12/17 22:58:58;222519.00;0.74;384.68;0.00;0.00;0.62;;;;;26.70;36.70;;;;;;2259661;61;7679;-69
2020/12/17 23:01:27;0.00;0.00;0.62;0.00;0.00;0.62;;;;;26.70;36.70;;;;;;2255101;61;7734;-72
2020/12/17 23:03:54;0.00;0.00;0.62;0.00;0.00;0.62;;;;;26.70;36.60;;;;;;2257617;61;7583;-67
2020/12/17 23:06:25;0.00;0.00;0.62;0.00;0.00;0.62;;;;;26.70;36.80;;;;;;2253986;61;7697;-73
2020/12/17 23:08:54;0.00;0.00;0.62;0.00;0.00;0.62;;;;;26.60;37.40;;;;;;2255971;61;6923;-69
2020/12/17 23:11:21;0.00;0.00;0.62;0.00;0.00;0.62;;;;;26.50;37.00;;;;;;2254350;61;7698;-75
2020/12/17 23:13:49;0.00;0.00;0.62;0.00;0.00;0.62;;;;;26.40;37.20;;;;;;2257652;61;7711;-71
2020/12/17 23:16:32;180214.00;0.60;311.86;102267.00;0.34;177.48;;;;;26.40;37.20;;;;;;2255615;61;6042;-69
2020/12/17 23:18:59;160121.00;0.53;277.25;4574.00;0.02;8.55;;;;;26.30;37.30;;;;;;2256720;61;6208;-70
2020/12/17 23:21:27;0.00;0.00;0.62;0.00;0.00;0.62;;;;;26.30;37.40;;;;;;2256206;61;7703;-70
2020/12/17 23:23:54;0.00;0.00;0.62;0.00;0.00;0.62;;;;;26.20;37.50;;;;;;2255418;61;7964;-68
2020/12/17 23:26:22;0.00;0.00;0.62;0.00;0.00;0.62;;;;;26.20;37.60;;;;;;2254314;61;7586;-68
2020/12/17 23:28:53;0.00;0.00;0.62;0.00;0.00;0.62;;;;;26.20;37.50;;;;;;2255129;61;5666;-67
2020/12/17 23:31:21;26203.00;0.09;46.01;0.00;0.00;0.62;;;;;26.20;37.50;;;;;;2254275;61;6148;-70
2020/12/17 23:33:49;108047.00;0.36;187.46;0.00;0.00;0.62;;;;;26.10;37.60;;;;;;2254027;61;6093;-73
2020/12/17 23:36:19;0.00;0.00;0.62;0.00;0.00;0.62;;;;;26.10;37.70;;;;;;2254187;61;4157;-68
2020/12/17 23:38:50;0.00;0.00;0.62;0.00;0.00;0.62;;;;;26.10;37.60;;;;;;2255826;61;6292;-70
2020/12/17 23:41:16;0.00;0.00;0.62;0.00;0.00;0.62;;;;;26.10;37.70;;;;;;2253949;61;7827;-70
2020/12/17 23:43:44;0.00;0.00;0.62;0.00;0.00;0.62;;;;;26.10;37.70;;;;;;2256357;61;6307;-69
2020/12/17 23:46:12;0.00;0.00;0.62;0.00;0.00;0.62;;;;;26.00;37.80;;;;;;2254404;61;8660;-67
2020/12/17 23:48:38;0.00;0.00;0.62;0.00;0.00;0.62;;;;;26.00;37.80;;;;;;2254391;61;7978;-70
2020/12/17 23:51:13;0.00;0.00;0.62;0.00;0.00;0.62;;;;;26.00;37.80;;;;;;2255498;61;7644;-73
2020/12/17 23:53:44;0.00;0.00;0.62;0.00;0.00;0.62;;;;;26.00;37.90;;;;;;2255942;61;6258;-72
2020/12/17 23:56:30;0.00;0.00;0.62;0.00;0.00;0.62;;;;;26.00;37.70;;;;;;2257911;61;7777;-68
2020/12/17 23:58:56;0.00;0.00;0.62;0.00;0.00;0.62;;;;;26.00;38.40;;;;;;2255889;61;8982;-72
